sensor_id;sensor_type;location;lat;lon;timestamp;pressure;altitude;pressure_sealevel;temperature;humidity
76229;BME280;65021;53.174;18.160;2023-09-12T00:01:51;100834.60;;;14.78;100.00
76229;BME280;65021;53.174;18.160;2023-09-12T00:04:18;100835.59;;;14.76;100.00
76229;BME280;65021;53.174;18.160;2023-09-12T00:06:44;100834.96;;;14.74;100.00
76229;BME280;65021;53.174;18.160;2023-09-12T00:09:11;100830.94;;;14.74;100.00
76229;BME280;65021;53.174;18.160;2023-09-12T00:11:37;100832.23;;;14.73;100.00
76229;BME280;65021;53.174;18.160;2023-09-12T00:14:04;100827.28;;;14.71;100.00
76229;BME280;65021;53.174;18.160;2023-09-12T00:16:31;100826.55;;;14.70;100.00
76229;BME280;65021;53.174;18.160;2023-09-12T00:18:57;100826.05;;;14.70;100.00
76229;BME280;65021;53.174;18.160;2023-09-12T00:21:24;100826.71;;;14.69;100.00
76229;BME280;65021;53.174;18.160;2023-09-12T00:23:50;100825.37;;;14.68;100.00
76229;BME280;65021;53.174;18.160;2023-09-12T00:26:17;100828.12;;;14.67;100.00
76229;BME280;65021;53.174;18.160;2023-09-12T00:28:44;100828.60;;;14.66;100.00
76229;BME280;65021;53.174;18.160;2023-09-12T00:31:10;100826.81;;;14.65;100.00
76229;BME280;65021;53.174;18.160;2023-09-12T00:33:37;100832.10;;;14.62;100.00
76229;BME280;65021;53.174;18.160;2023-09-12T00:36:03;100830.54;;;14.61;100.00
76229;BME280;65021;53.174;18.160;2023-09-12T00:38:31;100828.29;;;14.58;100.00
76229;BME280;65021;53.174;18.160;2023-09-12T00:40:58;100825.33;;;14.58;100.00
76229;BME280;65021;53.174;18.160;2023-09-12T00:43:24;100827.00;;;14.59;100.00
76229;BME280;65021;53.174;18.160;2023-09-12T00:45:51;100825.33;;;14.60;100.00
76229;BME280;65021;53.174;18.160;2023-09-12T00:48:18;100823.82;;;14.61;100.00
76229;BME280;65021;53.174;18.160;2023-09-12T00:50:46;100821.80;;;14.59;100.00
76229;BME280;65021;53.174;18.160;2023-09-12T00:53:14;100815.63;;;14.56;100.00
76229;BME280;65021;53.174;18.160;2023-09-12T00:55:50;100818.41;;;14.56;100.00
76229;BME280;65021;53.174;18.160;2023-09-12T00:58:19;100818.14;;;14.56;100.00
76229;BME280;65021;53.174;18.160;2023-09-12T01:00:46;100816.36;;;14.56;100.00
76229;BME280;65021;53.174;18.160;2023-09-12T01:03:12;100814.91;;;14.56;100.00
76229;BME280;65021;53.174;18.160;2023-09-12T01:05:41;100814.35;;;14.56;100.00
76229;BME280;65021;53.174;18.160;2023-09-12T01:08:08;100807.84;;;14.55;100.00
76229;BME280;65021;53.174;18.160;2023-09-12T01:10:35;100809.62;;;14.54;100.00
76229;BME280;65021;53.174;18.160;2023-09-12T01:13:02;100813.92;;;14.52;100.00
76229;BME280;65021;53.174;18.160;2023-09-12T01:15:29;100810.68;;;14.52;100.00
76229;BME280;65021;53.174;18.160;2023-09-12T01:17:56;100810.28;;;14.52;100.00
76229;BME280;65021;53.174;18.160;2023-09-12T01:20:27;100808.78;;;14.52;100.00
76229;BME280;65021;53.174;18.160;2023-09-12T01:28:29;100807.34;;;14.45;100.00
76229;BME280;65021;53.174;18.160;2023-09-12T01:30:58;100811.31;;;14.44;100.00
76229;BME280;65021;53.174;18.160;2023-09-12T01:33:24;100806.87;;;14.42;100.00
76229;BME280;65021;53.174;18.160;2023-09-12T01:35:51;100807.86;;;14.39;100.00
76229;BME280;65021;53.174;18.160;2023-09-12T01:38:18;100804.77;;;14.38;100.00
76229;BME280;65021;53.174;18.160;2023-09-12T01:40:51;100809.08;;;14.36;100.00
76229;BME280;65021;53.174;18.160;2023-09-12T01:43:22;100810.13;;;14.35;100.00
76229;BME280;65021;53.174;18.160;2023-09-12T01:45:51;100814.92;;;14.33;100.00
76229;BME280;65021;53.174;18.160;2023-09-12T01:48:20;100815.05;;;14.30;100.00
76229;BME280;65021;53.174;18.160;2023-09-12T01:50:48;100816.33;;;14.29;100.00
76229;BME280;65021;53.174;18.160;2023-09-12T01:53:15;100818.17;;;14.27;100.00
76229;BME280;65021;53.174;18.160;2023-09-12T01:55:45;100821.19;;;14.28;100.00
76229;BME280;65021;53.174;18.160;2023-09-12T01:58:14;100819.62;;;14.28;100.00
76229;BME280;65021;53.174;18.160;2023-09-12T02:00:41;100820.85;;;14.28;100.00
76229;BME280;65021;53.174;18.160;2023-09-12T02:03:07;100821.12;;;14.26;100.00
76229;BME280;65021;53.174;18.160;2023-09-12T02:05:34;100820.27;;;14.24;100.00
76229;BME280;65021;53.174;18.160;2023-09-12T02:08:02;100820.98;;;14.22;100.00
76229;BME280;65021;53.174;18.160;2023-09-12T02:10:28;100822.48;;;14.21;100.00
76229;BME280;65021;53.174;18.160;2023-09-12T02:12:55;100823.20;;;14.19;100.00
76229;BME280;65021;53.174;18.160;2023-09-12T02:15:21;100827.37;;;14.16;100.00
76229;BME280;65021;53.174;18.160;2023-09-12T02:17:48;100824.33;;;14.14;100.00
76229;BME280;65021;53.174;18.160;2023-09-12T02:20:17;100830.91;;;14.11;100.00
76229;BME280;65021;53.174;18.160;2023-09-12T02:22:45;100828.77;;;14.09;100.00
76229;BME280;65021;53.174;18.160;2023-09-12T02:25:11;100829.46;;;14.06;100.00
76229;BME280;65021;53.174;18.160;2023-09-12T02:27:38;100833.46;;;14.03;100.00
76229;BME280;65021;53.174;18.160;2023-09-12T02:30:05;100835.96;;;14.01;100.00
76229;BME280;65021;53.174;18.160;2023-09-12T02:32:32;100834.28;;;14.01;100.00
76229;BME280;65021;53.174;18.160;2023-09-12T02:34:58;100836.36;;;14.01;100.00
76229;BME280;65021;53.174;18.160;2023-09-12T02:37:25;100834.41;;;14.02;100.00
76229;BME280;65021;53.174;18.160;2023-09-12T02:39:51;100836.19;;;14.01;100.00
76229;BME280;65021;53.174;18.160;2023-09-12T02:42:18;100835.56;;;14.00;100.00
76229;BME280;65021;53.174;18.160;2023-09-12T02:44:45;100837.67;;;13.98;100.00
76229;BME280;65021;53.174;18.160;2023-09-12T02:47:11;100834.85;;;13.94;100.00
76229;BME280;65021;53.174;18.160;2023-09-12T02:49:38;100836.77;;;13.91;100.00
76229;BME280;65021;53.174;18.160;2023-09-12T02:52:05;100835.40;;;13.87;100.00
76229;BME280;65021;53.174;18.160;2023-09-12T02:54:31;100835.15;;;13.84;100.00
76229;BME280;65021;53.174;18.160;2023-09-12T02:56:58;100837.32;;;13.84;100.00
76229;BME280;65021;53.174;18.160;2023-09-12T02:59:24;100836.65;;;13.83;100.00
76229;BME280;65021;53.174;18.160;2023-09-12T03:01:51;100839.21;;;13.82;100.00
76229;BME280;65021;53.174;18.160;2023-09-12T03:04:18;100837.35;;;13.81;100.00
76229;BME280;65021;53.174;18.160;2023-09-12T03:06:44;100839.63;;;13.79;100.00
76229;BME280;65021;53.174;18.160;2023-09-12T03:09:11;100838.10;;;13.76;100.00
76229;BME280;65021;53.174;18.160;2023-09-12T03:11:38;100839.85;;;13.72;100.00
76229;BME280;65021;53.174;18.160;2023-09-12T03:14:04;100836.84;;;13.67;100.00
76229;BME280;65021;53.174;18.160;2023-09-12T03:16:31;100842.36;;;13.61;100.00
76229;BME280;65021;53.174;18.160;2023-09-12T03:18:57;100842.45;;;13.58;100.00
76229;BME280;65021;53.174;18.160;2023-09-12T03:21:25;100839.85;;;13.56;100.00
76229;BME280;65021;53.174;18.160;2023-09-12T03:23:51;100839.67;;;13.54;100.00
76229;BME280;65021;53.174;18.160;2023-09-12T03:26:17;100841.09;;;13.51;100.00
76229;BME280;65021;53.174;18.160;2023-09-12T03:28:44;100839.61;;;13.48;100.00
76229;BME280;65021;53.174;18.160;2023-09-12T03:31:12;100837.63;;;13.45;100.00
76229;BME280;65021;53.174;18.160;2023-09-12T03:33:41;100839.27;;;13.43;100.00
76229;BME280;65021;53.174;18.160;2023-09-12T03:36:09;100839.26;;;13.40;100.00
76229;BME280;65021;53.174;18.160;2023-09-12T03:38:35;100839.95;;;13.39;100.00
76229;BME280;65021;53.174;18.160;2023-09-12T03:41:02;100838.66;;;13.38;100.00
76229;BME280;65021;53.174;18.160;2023-09-12T03:43:29;100839.89;;;13.39;100.00
76229;BME280;65021;53.174;18.160;2023-09-12T03:45:56;100840.93;;;13.40;100.00
76229;BME280;65021;53.174;18.160;2023-09-12T03:48:22;100841.16;;;13.42;100.00
76229;BME280;65021;53.174;18.160;2023-09-12T03:50:49;100838.17;;;13.43;100.00
76229;BME280;65021;53.174;18.160;2023-09-12T03:53:16;100838.70;;;13.42;100.00
76229;BME280;65021;53.174;18.160;2023-09-12T03:55:42;100834.63;;;13.40;100.00
76229;BME280;65021;53.174;18.160;2023-09-12T03:58:09;100831.02;;;13.37;100.00
76229;BME280;65021;53.174;18.160;2023-09-12T04:00:36;100831.60;;;13.35;100.00
76229;BME280;65021;53.174;18.160;2023-09-12T04:03:02;100831.96;;;13.32;100.00
76229;BME280;65021;53.174;18.160;2023-09-12T04:05:29;100832.04;;;13.30;100.00
76229;BME280;65021;53.174;18.160;2023-09-12T04:07:56;100833.65;;;13.28;100.00
76229;BME280;65021;53.174;18.160;2023-09-12T04:10:23;100834.74;;;13.27;100.00
76229;BME280;65021;53.174;18.160;2023-09-12T04:12:49;100837.54;;;13.27;100.00
76229;BME280;65021;53.174;18.160;2023-09-12T04:15:16;100839.54;;;13.26;100.00
76229;BME280;65021;53.174;18.160;2023-09-12T04:17:42;100836.98;;;13.27;100.00
76229;BME280;65021;53.174;18.160;2023-09-12T04:20:10;100839.83;;;13.27;100.00
76229;BME280;65021;53.174;18.160;2023-09-12T04:22:43;100832.86;;;13.28;100.00
76229;BME280;65021;53.174;18.160;2023-09-12T04:25:10;100836.91;;;13.29;100.00
76229;BME280;65021;53.174;18.160;2023-09-12T04:27:37;100834.68;;;13.33;100.00
76229;BME280;65021;53.174;18.160;2023-09-12T04:30:04;100835.51;;;13.35;100.00
76229;BME280;65021;53.174;18.160;2023-09-12T04:32:31;100834.87;;;13.38;100.00
76229;BME280;65021;53.174;18.160;2023-09-12T04:34:58;100829.38;;;13.42;100.00
76229;BME280;65021;53.174;18.160;2023-09-12T04:37:25;100834.11;;;13.45;100.00
76229;BME280;65021;53.174;18.160;2023-09-12T04:39:52;100835.67;;;13.51;100.00
76229;BME280;65021;53.174;18.160;2023-09-12T04:42:18;100836.18;;;13.57;100.00
76229;BME280;65021;53.174;18.160;2023-09-12T04:44:45;100835.73;;;13.64;100.00
76229;BME280;65021;53.174;18.160;2023-09-12T04:47:11;100835.36;;;13.70;100.00
76229;BME280;65021;53.174;18.160;2023-09-12T04:49:39;100833.42;;;13.73;100.00
76229;BME280;65021;53.174;18.160;2023-09-12T04:52:06;100835.91;;;13.81;100.00
76229;BME280;65021;53.174;18.160;2023-09-12T04:54:33;100835.39;;;13.91;100.00
76229;BME280;65021;53.174;18.160;2023-09-12T04:56:59;100838.42;;;14.01;100.00
76229;BME280;65021;53.174;18.160;2023-09-12T04:59:26;100837.20;;;14.16;100.00
76229;BME280;65021;53.174;18.160;2023-09-12T05:01:52;100828.16;;;14.31;100.00
76229;BME280;65021;53.174;18.160;2023-09-12T05:04:19;100833.48;;;14.47;100.00
76229;BME280;65021;53.174;18.160;2023-09-12T05:06:46;100833.30;;;14.65;100.00
76229;BME280;65021;53.174;18.160;2023-09-12T05:09:13;100831.95;;;14.83;100.00
76229;BME280;65021;53.174;18.160;2023-09-12T05:11:39;100836.60;;;15.01;100.00
76229;BME280;65021;53.174;18.160;2023-09-12T05:14:06;100834.89;;;15.19;100.00
76229;BME280;65021;53.174;18.160;2023-09-12T05:16:33;100840.33;;;15.37;100.00
76229;BME280;65021;53.174;18.160;2023-09-12T05:18:59;100839.11;;;15.56;100.00
76229;BME280;65021;53.174;18.160;2023-09-12T05:21:26;100842.60;;;15.74;100.00
76229;BME280;65021;53.174;18.160;2023-09-12T05:23:52;100843.79;;;15.92;100.00
76229;BME280;65021;53.174;18.160;2023-09-12T05:26:19;100848.39;;;16.10;100.00
76229;BME280;65021;53.174;18.160;2023-09-12T05:28:45;100854.22;;;16.28;100.00
76229;BME280;65021;53.174;18.160;2023-09-12T05:31:12;100850.90;;;16.48;100.00
76229;BME280;65021;53.174;18.160;2023-09-12T05:33:39;100853.39;;;16.71;100.00
76229;BME280;65021;53.174;18.160;2023-09-12T05:36:05;100850.05;;;16.95;100.00
76229;BME280;65021;53.174;18.160;2023-09-12T05:38:35;100847.31;;;17.21;100.00
76229;BME280;65021;53.174;18.160;2023-09-12T05:41:01;100848.29;;;17.49;100.00
76229;BME280;65021;53.174;18.160;2023-09-12T05:43:28;100851.42;;;17.80;100.00
76229;BME280;65021;53.174;18.160;2023-09-12T05:45:55;100849.23;;;18.06;100.00
76229;BME280;65021;53.174;18.160;2023-09-12T05:48:23;100843.27;;;18.28;100.00
76229;BME280;65021;53.174;18.160;2023-09-12T05:50:50;100840.54;;;18.58;100.00
76229;BME280;65021;53.174;18.160;2023-09-12T05:53:16;100836.91;;;18.89;100.00
76229;BME280;65021;53.174;18.160;2023-09-12T05:55:43;100836.92;;;19.24;100.00
76229;BME280;65021;53.174;18.160;2023-09-12T05:58:11;100842.86;;;19.58;100.00
76229;BME280;65021;53.174;18.160;2023-09-12T06:00:37;100842.50;;;19.88;100.00
76229;BME280;65021;53.174;18.160;2023-09-12T06:03:04;100838.21;;;20.16;100.00
76229;BME280;65021;53.174;18.160;2023-09-12T06:05:31;100841.77;;;20.44;100.00
76229;BME280;65021;53.174;18.160;2023-09-12T06:07:58;100835.91;;;20.75;100.00
76229;BME280;65021;53.174;18.160;2023-09-12T06:10:24;100832.37;;;21.14;100.00
76229;BME280;65021;53.174;18.160;2023-09-12T06:12:51;100836.85;;;21.55;100.00
76229;BME280;65021;53.174;18.160;2023-09-12T06:15:17;100840.93;;;21.98;100.00
76229;BME280;65021;53.174;18.160;2023-09-12T06:17:44;100840.53;;;22.41;100.00
76229;BME280;65021;53.174;18.160;2023-09-12T06:20:11;100836.09;;;22.77;100.00
76229;BME280;65021;53.174;18.160;2023-09-12T06:22:37;100831.71;;;23.10;100.00
76229;BME280;65021;53.174;18.160;2023-09-12T06:25:05;100836.67;;;23.44;100.00
76229;BME280;65021;53.174;18.160;2023-09-12T06:27:32;100836.47;;;23.77;100.00
76229;BME280;65021;53.174;18.160;2023-09-12T06:29:58;100834.05;;;24.05;100.00
76229;BME280;65021;53.174;18.160;2023-09-12T06:32:25;100836.01;;;24.18;100.00
76229;BME280;65021;53.174;18.160;2023-09-12T06:34:51;100837.50;;;24.26;100.00
76229;BME280;65021;53.174;18.160;2023-09-12T06:37:18;100840.72;;;24.41;100.00
76229;BME280;65021;53.174;18.160;2023-09-12T06:39:45;100841.62;;;24.58;100.00
76229;BME280;65021;53.174;18.160;2023-09-12T06:42:11;100841.86;;;24.74;100.00
76229;BME280;65021;53.174;18.160;2023-09-12T06:44:38;100845.73;;;24.97;100.00
76229;BME280;65021;53.174;18.160;2023-09-12T06:47:05;100842.50;;;25.12;100.00
76229;BME280;65021;53.174;18.160;2023-09-12T06:49:32;100843.60;;;25.21;100.00
76229;BME280;65021;53.174;18.160;2023-09-12T06:51:59;100847.94;;;25.35;100.00
76229;BME280;65021;53.174;18.160;2023-09-12T06:54:25;100847.20;;;25.41;99.94
76229;BME280;65021;53.174;18.160;2023-09-12T06:56:52;100845.01;;;25.25;99.96
76229;BME280;65021;53.174;18.160;2023-09-12T06:59:18;100847.39;;;25.09;99.95
76229;BME280;65021;53.174;18.160;2023-09-12T07:01:45;100847.79;;;24.95;99.63
76229;BME280;65021;53.174;18.160;2023-09-12T07:04:12;100848.13;;;24.85;99.03
76229;BME280;65021;53.174;18.160;2023-09-12T07:06:38;100844.88;;;24.79;98.82
76229;BME280;65021;53.174;18.160;2023-09-12T07:09:05;100842.90;;;24.75;99.00
76229;BME280;65021;53.174;18.160;2023-09-12T07:11:33;100849.29;;;24.69;97.67
76229;BME280;65021;53.174;18.160;2023-09-12T07:13:59;100848.64;;;24.69;97.72
76229;BME280;65021;53.174;18.160;2023-09-12T07:16:26;100849.83;;;24.65;96.86
76229;BME280;65021;53.174;18.160;2023-09-12T07:18:52;100850.98;;;24.65;96.66
76229;BME280;65021;53.174;18.160;2023-09-12T07:21:19;100845.92;;;24.63;95.43
76229;BME280;65021;53.174;18.160;2023-09-12T07:23:47;100842.98;;;24.48;94.55
76229;BME280;65021;53.174;18.160;2023-09-12T07:26:14;100842.00;;;24.37;94.95
76229;BME280;65021;53.174;18.160;2023-09-12T07:28:41;100839.66;;;24.39;95.14
76229;BME280;65021;53.174;18.160;2023-09-12T07:31:08;100843.95;;;24.48;95.87
76229;BME280;65021;53.174;18.160;2023-09-12T07:33:34;100845.26;;;24.61;95.33
76229;BME280;65021;53.174;18.160;2023-09-12T07:36:01;100844.17;;;24.67;94.73
76229;BME280;65021;53.174;18.160;2023-09-12T07:38:29;100844.96;;;24.78;94.65
76229;BME280;65021;53.174;18.160;2023-09-12T07:41:03;100845.05;;;24.87;94.07
76229;BME280;65021;53.174;18.160;2023-09-12T07:43:30;100845.59;;;24.93;94.35
76229;BME280;65021;53.174;18.160;2023-09-12T07:45:59;100846.59;;;25.02;93.65
76229;BME280;65021;53.174;18.160;2023-09-12T07:48:26;100847.86;;;25.12;93.82
76229;BME280;65021;53.174;18.160;2023-09-12T07:50:52;100845.26;;;25.22;92.46
76229;BME280;65021;53.174;18.160;2023-09-12T07:53:19;100845.17;;;25.25;92.29
76229;BME280;65021;53.174;18.160;2023-09-12T07:55:46;100844.26;;;25.30;92.96
76229;BME280;65021;53.174;18.160;2023-09-12T07:58:16;100844.77;;;25.41;92.50
76229;BME280;65021;53.174;18.160;2023-09-12T08:00:47;100846.42;;;25.53;92.23
76229;BME280;65021;53.174;18.160;2023-09-12T08:03:14;100850.09;;;25.61;92.04
76229;BME280;65021;53.174;18.160;2023-09-12T08:05:41;100846.42;;;25.67;91.45
76229;BME280;65021;53.174;18.160;2023-09-12T08:08:08;100844.91;;;25.73;91.83
76229;BME280;65021;53.174;18.160;2023-09-12T08:10:34;100843.59;;;25.85;90.78
76229;BME280;65021;53.174;18.160;2023-09-12T08:13:01;100846.05;;;25.96;90.29
76229;BME280;65021;53.174;18.160;2023-09-12T08:15:28;100843.88;;;26.07;89.78
76229;BME280;65021;53.174;18.160;2023-09-12T08:17:54;100844.91;;;26.18;88.24
76229;BME280;65021;53.174;18.160;2023-09-12T08:20:21;100847.31;;;26.28;87.80
76229;BME280;65021;53.174;18.160;2023-09-12T08:22:48;100844.46;;;26.32;87.08
76229;BME280;65021;53.174;18.160;2023-09-12T08:25:15;100844.61;;;26.34;86.35
76229;BME280;65021;53.174;18.160;2023-09-12T08:27:42;100845.98;;;26.44;85.85
76229;BME280;65021;53.174;18.160;2023-09-12T08:30:10;100847.88;;;26.55;85.29
76229;BME280;65021;53.174;18.160;2023-09-12T08:32:37;100845.98;;;26.64;83.65
76229;BME280;65021;53.174;18.160;2023-09-12T08:35:06;100847.17;;;26.76;83.58
76229;BME280;65021;53.174;18.160;2023-09-12T08:37:33;100848.20;;;26.88;83.39
76229;BME280;65021;53.174;18.160;2023-09-12T08:40:00;100847.39;;;27.00;83.30
76229;BME280;65021;53.174;18.160;2023-09-12T08:42:27;100848.33;;;27.06;82.20
76229;BME280;65021;53.174;18.160;2023-09-12T08:44:55;100848.84;;;27.11;80.23
76229;BME280;65021;53.174;18.160;2023-09-12T08:47:22;100847.91;;;27.10;77.29
76229;BME280;65021;53.174;18.160;2023-09-12T08:49:50;100842.52;;;27.12;78.95
76229;BME280;65021;53.174;18.160;2023-09-12T08:52:17;100843.68;;;27.17;78.73
76229;BME280;65021;53.174;18.160;2023-09-12T08:54:43;100838.92;;;27.26;76.65
76229;BME280;65021;53.174;18.160;2023-09-12T08:57:11;100834.58;;;27.35;76.36
76229;BME280;65021;53.174;18.160;2023-09-12T08:59:39;100836.89;;;27.47;72.02
76229;BME280;65021;53.174;18.160;2023-09-12T09:02:08;100830.85;;;27.57;70.19
76229;BME280;65021;53.174;18.160;2023-09-12T09:04:35;100835.10;;;27.67;69.21
76229;BME280;65021;53.174;18.160;2023-09-12T09:07:03;100834.34;;;27.74;68.59
76229;BME280;65021;53.174;18.160;2023-09-12T09:09:30;100834.23;;;27.81;67.36
76229;BME280;65021;53.174;18.160;2023-09-12T09:11:58;100831.64;;;27.87;67.13
76229;BME280;65021;53.174;18.160;2023-09-12T09:14:25;100830.86;;;27.94;65.25
76229;BME280;65021;53.174;18.160;2023-09-12T09:16:51;100834.29;;;28.01;59.55
76229;BME280;65021;53.174;18.160;2023-09-12T09:19:18;100834.39;;;28.07;58.17
76229;BME280;65021;53.174;18.160;2023-09-12T09:21:46;100833.29;;;28.13;57.60
76229;BME280;65021;53.174;18.160;2023-09-12T09:24:14;100831.84;;;28.19;55.96
76229;BME280;65021;53.174;18.160;2023-09-12T09:26:48;100828.58;;;28.28;55.67
76229;BME280;65021;53.174;18.160;2023-09-12T09:29:20;100829.73;;;28.36;55.63
76229;BME280;65021;53.174;18.160;2023-09-12T09:31:49;100825.85;;;28.40;54.99
76229;BME280;65021;53.174;18.160;2023-09-12T09:34:17;100819.42;;;28.44;54.73
76229;BME280;65021;53.174;18.160;2023-09-12T09:36:48;100816.43;;;28.48;54.67
76229;BME280;65021;53.174;18.160;2023-09-12T09:39:20;100809.55;;;28.57;54.05
76229;BME280;65021;53.174;18.160;2023-09-12T09:41:47;100805.41;;;28.62;53.65
76229;BME280;65021;53.174;18.160;2023-09-12T09:44:15;100803.95;;;28.71;53.24
76229;BME280;65021;53.174;18.160;2023-09-12T09:46:46;100802.15;;;28.77;51.71
76229;BME280;65021;53.174;18.160;2023-09-12T09:49:17;100797.84;;;28.74;49.82
76229;BME280;65021;53.174;18.160;2023-09-12T09:51:45;100798.26;;;28.78;51.04
76229;BME280;65021;53.174;18.160;2023-09-12T09:54:12;100795.67;;;28.86;50.88
76229;BME280;65021;53.174;18.160;2023-09-12T09:56:50;100797.80;;;28.89;48.90
76229;BME280;65021;53.174;18.160;2023-09-12T09:59:22;100799.08;;;28.94;48.17
76229;BME280;65021;53.174;18.160;2023-09-12T10:01:50;100796.88;;;29.00;48.24
76229;BME280;65021;53.174;18.160;2023-09-12T10:04:19;100795.09;;;29.04;45.69
76229;BME280;65021;53.174;18.160;2023-09-12T10:06:47;100791.20;;;28.99;43.96
76229;BME280;65021;53.174;18.160;2023-09-12T10:09:14;100788.46;;;28.97;45.19
76229;BME280;65021;53.174;18.160;2023-09-12T10:11:46;100788.41;;;29.05;45.09
76229;BME280;65021;53.174;18.160;2023-09-12T10:14:15;100785.94;;;29.04;42.50
76229;BME280;65021;53.174;18.160;2023-09-12T10:16:47;100784.89;;;28.89;42.41
76229;BME280;65021;53.174;18.160;2023-09-12T10:19:18;100786.38;;;28.89;43.24
76229;BME280;65021;53.174;18.160;2023-09-12T10:24:27;100780.33;;;28.99;42.68
76229;BME280;65021;53.174;18.160;2023-09-12T10:26:55;100786.23;;;29.00;42.95
76229;BME280;65021;53.174;18.160;2023-09-12T10:29:22;100787.08;;;28.97;42.71
76229;BME280;65021;53.174;18.160;2023-09-12T10:31:49;100783.36;;;28.93;42.39
76229;BME280;65021;53.174;18.160;2023-09-12T10:34:16;100779.52;;;28.93;42.27
76229;BME280;65021;53.174;18.160;2023-09-12T10:36:43;100778.28;;;28.99;42.19
76229;BME280;65021;53.174;18.160;2023-09-12T10:39:11;100781.43;;;29.04;42.01
76229;BME280;65021;53.174;18.160;2023-09-12T10:41:39;100779.19;;;29.12;42.15
76229;BME280;65021;53.174;18.160;2023-09-12T10:44:10;100782.92;;;29.23;42.20
76229;BME280;65021;53.174;18.160;2023-09-12T10:46:38;100783.15;;;29.29;41.19
76229;BME280;65021;53.174;18.160;2023-09-12T10:49:07;100777.83;;;29.25;40.36
76229;BME280;65021;53.174;18.160;2023-09-12T10:51:37;100775.61;;;29.28;41.07
76229;BME280;65021;53.174;18.160;2023-09-12T10:54:05;100775.30;;;29.32;40.85
76229;BME280;65021;53.174;18.160;2023-09-12T10:56:32;100777.14;;;29.37;40.92
76229;BME280;65021;53.174;18.160;2023-09-12T11:01:37;100762.77;;;29.32;40.58
76229;BME280;65021;53.174;18.160;2023-09-12T11:06:46;100761.77;;;29.28;39.70
76229;BME280;65021;53.174;18.160;2023-09-12T11:11:42;100748.82;;;29.18;40.36
76229;BME280;65021;53.174;18.160;2023-09-12T11:14:09;100753.75;;;29.22;40.57
76229;BME280;65021;53.174;18.160;2023-09-12T11:16:35;100756.34;;;29.30;40.79
76229;BME280;65021;53.174;18.160;2023-09-12T11:19:19;100762.64;;;29.37;40.33
76229;BME280;65021;53.174;18.160;2023-09-12T11:21:50;100766.46;;;29.39;40.02
76229;BME280;65021;53.174;18.160;2023-09-12T11:24:18;100766.24;;;29.37;39.74
76229;BME280;65021;53.174;18.160;2023-09-12T11:26:56;100764.80;;;29.35;39.63
76229;BME280;65021;53.174;18.160;2023-09-12T11:29:34;100760.84;;;29.33;39.70
76229;BME280;65021;53.174;18.160;2023-09-12T11:32:02;100759.63;;;29.33;39.54
76229;BME280;65021;53.174;18.160;2023-09-12T11:34:43;100760.14;;;29.31;39.59
76229;BME280;65021;53.174;18.160;2023-09-12T11:37:22;100758.49;;;29.25;38.52
76229;BME280;65021;53.174;18.160;2023-09-12T11:39:49;100754.31;;;29.15;38.46
76229;BME280;65021;53.174;18.160;2023-09-12T11:42:17;100753.98;;;29.14;39.20
76229;BME280;65021;53.174;18.160;2023-09-12T11:44:44;100755.30;;;29.18;39.45
76229;BME280;65021;53.174;18.160;2023-09-12T11:47:14;100758.63;;;29.23;39.44
76229;BME280;65021;53.174;18.160;2023-09-12T11:49:41;100754.63;;;29.26;39.53
76229;BME280;65021;53.174;18.160;2023-09-12T11:52:12;100755.13;;;29.27;38.95
76229;BME280;65021;53.174;18.160;2023-09-12T11:54:40;100758.33;;;29.24;39.39
76229;BME280;65021;53.174;18.160;2023-09-12T11:57:09;100755.85;;;29.23;39.22
76229;BME280;65021;53.174;18.160;2023-09-12T11:59:37;100753.23;;;29.17;38.87
76229;BME280;65021;53.174;18.160;2023-09-12T12:02:09;100745.83;;;29.19;39.39
76229;BME280;65021;53.174;18.160;2023-09-12T12:04:36;100744.86;;;29.25;39.32
76229;BME280;65021;53.174;18.160;2023-09-12T12:07:04;100744.93;;;29.25;39.52
76229;BME280;65021;53.174;18.160;2023-09-12T12:09:31;100745.62;;;29.33;39.45
76229;BME280;65021;53.174;18.160;2023-09-12T12:12:14;100745.55;;;29.38;39.64
76229;BME280;65021;53.174;18.160;2023-09-12T12:14:41;100745.45;;;29.40;39.48
76229;BME280;65021;53.174;18.160;2023-09-12T12:17:09;100746.09;;;29.39;38.89
76229;BME280;65021;53.174;18.160;2023-09-12T12:19:37;100748.54;;;29.36;38.69
76229;BME280;65021;53.174;18.160;2023-09-12T12:22:06;100744.48;;;29.44;38.27
76229;BME280;65021;53.174;18.160;2023-09-12T12:27:05;100743.68;;;29.51;38.73
76229;BME280;65021;53.174;18.160;2023-09-12T12:29:32;100742.11;;;29.55;38.23
76229;BME280;65021;53.174;18.160;2023-09-12T12:32:00;100747.30;;;29.60;38.76
76229;BME280;65021;53.174;18.160;2023-09-12T12:34:28;100745.09;;;29.70;38.68
76229;BME280;65021;53.174;18.160;2023-09-12T12:36:55;100748.73;;;29.75;38.36
76229;BME280;65021;53.174;18.160;2023-09-12T12:39:22;100749.12;;;29.77;38.68
76229;BME280;65021;53.174;18.160;2023-09-12T12:41:52;100744.98;;;29.78;38.43
76229;BME280;65021;53.174;18.160;2023-09-12T12:44:20;100746.66;;;29.80;38.10
76229;BME280;65021;53.174;18.160;2023-09-12T12:46:51;100743.88;;;29.77;37.99
76229;BME280;65021;53.174;18.160;2023-09-12T12:49:19;100740.71;;;29.78;37.96
76229;BME280;65021;53.174;18.160;2023-09-12T12:51:46;100738.11;;;29.76;37.58
76229;BME280;65021;53.174;18.160;2023-09-12T12:54:13;100735.58;;;29.73;37.66
76229;BME280;65021;53.174;18.160;2023-09-12T12:56:43;100731.95;;;29.75;37.71